createdAt,value
2019-02-03T00:01:26.760Z,13.60
2019-02-03T00:03:56.343Z,13.90
2019-02-03T00:06:25.942Z,16.93
2019-02-03T00:08:55.651Z,20.33
2019-02-03T00:11:25.361Z,11.53
2019-02-03T00:13:54.981Z,10.57
2019-02-03T00:16:24.683Z,10.27
2019-02-03T00:18:54.238Z,9.13
2019-02-03T00:21:23.840Z,10.60
2019-02-03T00:23:53.402Z,11.60
2019-02-03T00:26:22.944Z,30.60
2019-02-03T00:28:52.637Z,14.30
2019-02-03T00:31:22.262Z,12.60
2019-02-03T00:33:51.833Z,10.90
2019-02-03T00:36:21.764Z,13.47
2019-02-03T00:38:51.489Z,8.53
2019-02-03T00:41:21.088Z,8.53
2019-02-03T00:43:50.696Z,8.63
2019-02-03T00:46:20.279Z,7.90
2019-02-03T00:48:50.346Z,8.43
2019-02-03T00:51:19.873Z,8.57
2019-02-03T00:53:49.469Z,8.27
2019-02-03T00:56:19.122Z,7.93
2019-02-03T00:58:48.696Z,8.17
2019-02-03T01:01:18.235Z,8.43
2019-02-03T01:03:47.851Z,7.70
2019-02-03T01:06:17.408Z,9.60
2019-02-03T01:08:47.061Z,9.47
2019-02-03T01:11:16.776Z,12.00
2019-02-03T01:13:46.296Z,15.77
2019-02-03T01:16:16.028Z,15.67
2019-02-03T01:18:45.630Z,10.40
2019-02-03T01:21:15.299Z,12.67
2019-02-03T01:23:44.909Z,13.00
2019-02-03T01:26:14.621Z,11.40
2019-02-03T01:28:44.617Z,10.53
2019-02-03T01:31:14.303Z,10.50
2019-02-03T01:33:43.918Z,9.87
2019-02-03T01:36:13.546Z,9.80
2019-02-03T01:38:43.121Z,16.90
2019-02-03T01:41:12.876Z,11.30
2019-02-03T01:43:42.487Z,14.60
2019-02-03T01:46:12.137Z,12.67
2019-02-03T01:48:41.811Z,13.60
2019-02-03T01:51:11.554Z,11.00
2019-02-03T01:53:41.321Z,11.77
2019-02-03T01:56:11.186Z,12.17
2019-02-03T01:58:40.880Z,12.90
2019-02-03T02:01:10.377Z,9.77
2019-02-03T02:03:39.996Z,10.23
2019-02-03T02:06:09.662Z,9.70
2019-02-03T02:08:39.600Z,10.77
2019-02-03T02:11:09.204Z,10.57
2019-02-03T02:13:38.909Z,8.70
2019-02-03T02:16:08.545Z,9.67
2019-02-03T02:18:38.183Z,9.80
2019-02-03T02:21:07.827Z,7.50
2019-02-03T02:23:37.404Z,7.33
2019-02-03T02:26:07.506Z,9.40
2019-02-03T02:28:37.156Z,8.60
2019-02-03T02:31:06.771Z,8.40
2019-02-03T02:33:36.378Z,8.30
2019-02-03T02:36:06.404Z,8.73
2019-02-03T02:38:36.003Z,11.03
2019-02-03T02:41:05.612Z,10.33
2019-02-03T02:43:35.265Z,10.60
2019-02-03T02:46:04.929Z,10.30
2019-02-03T02:48:34.572Z,9.47
2019-02-03T02:51:04.104Z,9.17
2019-02-03T02:53:33.760Z,8.77
2019-02-03T02:56:03.356Z,7.37
2019-02-03T02:58:33.006Z,5.77
2019-02-03T03:01:02.675Z,6.87
2019-02-03T03:03:32.515Z,7.57
2019-02-03T03:06:02.039Z,7.90
2019-02-03T03:08:31.630Z,6.00
2019-02-03T03:11:01.256Z,6.10
2019-02-03T03:13:30.782Z,3.33
2019-02-03T03:16:00.470Z,2.40
2019-02-03T03:18:30.025Z,3.10
2019-02-03T03:20:59.679Z,2.30
2019-02-03T03:23:29.391Z,2.93
2019-02-03T03:25:59.061Z,6.80
2019-02-03T03:28:28.707Z,6.10
2019-02-03T03:30:58.370Z,9.87
2019-02-03T03:33:28.056Z,5.90
2019-02-03T03:35:57.597Z,2.97
2019-02-03T03:38:32.198Z,2.63
2019-02-03T03:40:58.587Z,2.90
2019-02-03T03:43:28.368Z,2.97
2019-02-03T03:45:57.978Z,3.10
2019-02-03T03:48:27.659Z,2.57
2019-02-03T03:50:57.193Z,3.10
2019-02-03T03:53:26.894Z,3.03
2019-02-03T03:55:56.416Z,3.30
2019-02-03T03:58:26.109Z,6.33
2019-02-03T04:00:55.708Z,3.23
2019-02-03T04:03:25.326Z,3.60
2019-02-03T04:05:54.930Z,4.00
2019-02-03T04:08:24.592Z,5.62
2019-02-03T04:10:54.187Z,5.00
2019-02-03T04:13:23.814Z,7.10
2019-02-03T04:15:53.473Z,5.50
2019-02-03T04:18:23.011Z,5.00
2019-02-03T04:20:52.674Z,6.67
2019-02-03T04:23:22.727Z,8.93
2019-02-03T04:25:54.462Z,7.90
2019-02-03T04:28:23.998Z,9.30
2019-02-03T04:30:53.563Z,9.13
2019-02-03T04:33:23.104Z,9.33
2019-02-03T04:35:52.686Z,9.10
2019-02-03T04:38:22.291Z,11.00
2019-02-03T04:40:51.850Z,10.60
2019-02-03T04:43:21.513Z,12.00
2019-02-03T04:45:51.131Z,10.47
2019-02-03T04:48:20.716Z,11.00
2019-02-03T04:50:50.466Z,15.70
2019-02-03T04:53:20.175Z,15.23
2019-02-03T04:55:49.798Z,16.63
2019-02-03T04:58:19.340Z,12.17
2019-02-03T05:00:48.965Z,19.03
2019-02-03T05:03:18.606Z,21.20
2019-02-03T05:05:48.182Z,19.27
2019-02-03T05:08:17.795Z,23.30
2019-02-03T05:10:47.405Z,17.47
2019-02-03T05:13:17.137Z,15.60
2019-02-03T05:15:46.848Z,19.47
2019-02-03T05:18:16.519Z,10.33
2019-02-03T05:20:46.132Z,25.77
2019-02-03T05:23:15.764Z,22.37
2019-02-03T05:25:45.482Z,14.73
2019-02-03T05:28:15.067Z,17.87
2019-02-03T05:30:44.884Z,20.03
2019-02-03T05:33:14.402Z,17.60
2019-02-03T05:35:44.038Z,17.30
2019-02-03T05:38:13.583Z,15.50
2019-02-03T05:40:43.132Z,13.57
2019-02-03T05:43:12.650Z,18.10
2019-02-03T05:45:42.323Z,18.23
2019-02-03T05:48:11.869Z,19.57
2019-02-03T05:50:41.488Z,21.80
2019-02-03T05:53:11.122Z,22.40
2019-02-03T05:55:40.789Z,19.30
2019-02-03T05:58:10.769Z,23.10
2019-02-03T06:00:41.948Z,20.67
2019-02-03T06:03:11.611Z,21.17
2019-02-03T06:05:41.227Z,27.27
2019-02-03T06:08:10.844Z,21.00
2019-02-03T06:10:40.532Z,25.90
2019-02-03T06:13:10.232Z,23.60
2019-02-03T06:15:39.849Z,27.40
2019-02-03T06:18:09.504Z,25.30
2019-02-03T06:20:39.269Z,31.40
2019-02-03T06:23:09.831Z,31.80
2019-02-03T06:25:39.372Z,31.90
2019-02-03T06:28:09.050Z,33.23
2019-02-03T06:31:22.769Z,29.93
2019-02-03T06:33:53.653Z,27.03
2019-02-03T06:36:24.235Z,29.20
2019-02-03T06:38:54.916Z,29.33
2019-02-03T06:41:24.568Z,34.50
2019-02-03T06:43:54.244Z,32.07
2019-02-03T06:46:41.200Z,31.03
2019-02-03T06:49:20.538Z,33.00
2019-02-03T06:51:50.136Z,37.57
2019-02-03T06:54:19.686Z,34.83
2019-02-03T06:56:49.252Z,35.83
2019-02-03T06:59:18.894Z,53.10
2019-02-03T07:01:48.571Z,42.00
2019-02-03T07:04:18.682Z,51.00
2019-02-03T07:06:48.302Z,36.67
2019-02-03T07:09:17.944Z,29.67
2019-02-03T07:11:47.622Z,15.23
2019-02-03T07:14:17.356Z,14.97
2019-02-03T07:16:46.899Z,37.27
2019-02-03T07:19:16.943Z,23.47
2019-02-03T07:21:49.339Z,20.87
2019-02-03T07:24:17.848Z,25.60
2019-02-03T07:26:47.411Z,39.07
2019-02-03T07:29:17.017Z,41.53
2019-02-03T07:31:46.966Z,18.50
2019-02-03T07:34:16.538Z,15.90
2019-02-03T07:36:46.162Z,40.27
2019-02-03T07:39:15.771Z,20.77
2019-02-03T07:41:45.500Z,27.90
2019-02-03T07:44:15.179Z,25.03
2019-02-03T07:46:44.820Z,10.13
2019-02-03T07:49:14.354Z,11.27
2019-02-03T07:51:43.906Z,4.97
2019-02-03T07:54:13.427Z,4.30
2019-02-03T07:56:43.040Z,4.43
2019-02-03T07:59:12.849Z,3.50
2019-02-03T08:01:42.390Z,3.70
2019-02-03T08:04:12.028Z,2.87
2019-02-03T08:06:41.557Z,2.53
2019-02-03T08:09:11.835Z,3.73
2019-02-03T08:11:41.395Z,2.50
2019-02-03T08:14:11.087Z,9.13
2019-02-03T08:16:40.658Z,4.20
2019-02-03T08:19:10.180Z,3.43
2019-02-03T08:21:40.206Z,4.30
2019-02-03T08:24:09.915Z,4.60
2019-02-03T08:26:39.938Z,5.50
2019-02-03T08:29:09.504Z,5.10
2019-02-03T08:31:39.044Z,5.47
2019-02-03T08:34:08.656Z,4.00
2019-02-03T08:36:38.322Z,2.77
2019-02-03T08:39:09.368Z,3.87
2019-02-03T08:41:39.034Z,4.30
2019-02-03T08:44:08.697Z,4.10
2019-02-03T08:46:41.027Z,3.20
2019-02-03T08:49:10.583Z,3.57
2019-02-03T08:51:40.258Z,2.83
2019-02-03T08:54:10.025Z,2.90
2019-02-03T08:56:39.639Z,3.43
2019-02-03T08:59:09.293Z,4.50
2019-02-03T09:01:38.886Z,4.57
2019-02-03T09:04:08.490Z,4.03
2019-02-03T09:06:38.469Z,4.23
2019-02-03T09:09:10.300Z,3.03
2019-02-03T09:11:39.932Z,2.53
2019-02-03T09:14:09.587Z,2.80
2019-02-03T09:16:39.151Z,2.70
2019-02-03T09:19:08.797Z,3.27
2019-02-03T09:21:38.390Z,3.00
2019-02-03T09:24:08.040Z,3.10
2019-02-03T09:26:37.735Z,3.17
2019-02-03T09:29:07.272Z,3.03
2019-02-03T09:31:36.947Z,2.50
2019-02-03T09:34:06.818Z,3.20
2019-02-03T09:36:36.376Z,3.57
2019-02-03T09:39:12.132Z,3.30
2019-02-03T09:41:41.826Z,3.27
2019-02-03T09:44:11.410Z,2.00
2019-02-03T09:46:41.306Z,2.30
2019-02-03T09:49:11.022Z,2.87
2019-02-03T09:51:43.290Z,2.93
2019-02-03T09:54:13.018Z,3.20
2019-02-03T09:56:42.764Z,4.03
2019-02-03T09:59:12.658Z,3.63
2019-02-03T10:01:42.330Z,4.60
2019-02-03T10:04:12.053Z,2.90
2019-02-03T10:06:41.566Z,3.60
2019-02-03T10:09:11.119Z,2.53
2019-02-03T10:11:40.875Z,3.00
2019-02-03T10:14:10.536Z,2.80
2019-02-03T10:16:40.079Z,3.27
2019-02-03T10:19:09.686Z,2.60
2019-02-03T10:21:39.239Z,2.87
2019-02-03T10:24:08.876Z,2.93
2019-02-03T10:26:39.056Z,2.80
2019-02-03T10:29:07.822Z,2.43
2019-02-03T10:31:38.869Z,2.47
2019-02-03T10:34:08.410Z,2.97
2019-02-03T10:36:38.067Z,3.77
2019-02-03T10:39:10.266Z,3.27
2019-02-03T10:41:40.324Z,4.20
2019-02-03T10:44:09.889Z,3.57
2019-02-03T10:46:39.580Z,3.40
2019-02-03T10:49:09.308Z,3.67
2019-02-03T10:51:38.899Z,3.70
2019-02-03T10:54:08.816Z,3.30
2019-02-03T10:56:38.479Z,5.40
2019-02-03T10:59:08.116Z,3.07
2019-02-03T11:01:37.729Z,2.97
2019-02-03T11:04:07.285Z,3.33
2019-02-03T11:06:36.833Z,3.10
2019-02-03T11:09:09.688Z,6.43
2019-02-03T11:11:39.376Z,3.33
2019-02-03T11:14:08.943Z,3.50
2019-02-03T11:16:38.492Z,4.23
2019-02-03T11:19:09.402Z,4.27
2019-02-03T11:21:39.044Z,4.60
2019-02-03T11:24:08.700Z,3.97
2019-02-03T11:26:38.276Z,3.70
2019-02-03T11:29:07.915Z,3.77
2019-02-03T11:31:37.523Z,3.30
2019-02-03T11:34:07.144Z,3.60
2019-02-03T11:36:36.842Z,4.63
2019-02-03T11:39:08.817Z,4.63
2019-02-03T11:41:48.720Z,4.33
2019-02-03T11:44:09.804Z,4.70
2019-02-03T11:46:39.372Z,3.90
2019-02-03T11:49:08.986Z,3.83
2019-02-03T11:51:38.983Z,4.13
2019-02-03T11:54:08.644Z,3.77
2019-02-03T11:56:38.258Z,4.93
2019-02-03T11:59:07.826Z,4.67
2019-02-03T12:01:37.466Z,5.40
2019-02-03T12:04:07.029Z,3.63
2019-02-03T12:06:36.665Z,3.20
2019-02-03T12:09:08.914Z,3.80
2019-02-03T12:11:38.693Z,3.97
2019-02-03T12:14:08.319Z,3.03
2019-02-03T12:16:38.057Z,3.77
2019-02-03T12:19:07.573Z,3.80
2019-02-03T12:21:37.156Z,3.67
2019-02-03T12:24:06.935Z,5.03
2019-02-03T12:26:36.677Z,4.50
2019-02-03T12:29:06.295Z,5.60
2019-02-03T12:31:35.966Z,3.80
2019-02-03T12:34:05.533Z,4.20
2019-02-03T12:36:35.065Z,5.83
2019-02-03T12:39:07.228Z,4.13
2019-02-03T12:41:36.980Z,3.70
2019-02-03T12:44:06.634Z,5.00
2019-02-03T12:46:38.835Z,4.90
2019-02-03T12:49:07.683Z,3.87
2019-02-03T12:51:39.946Z,3.50
2019-02-03T12:54:08.612Z,4.27
2019-02-03T12:56:38.453Z,4.97
2019-02-03T12:59:08.138Z,5.73
2019-02-03T13:01:37.869Z,3.93
2019-02-03T13:04:07.645Z,3.70
2019-02-03T13:06:37.261Z,3.90
2019-02-03T13:09:10.357Z,4.13
2019-02-03T13:11:40.178Z,4.23
2019-02-03T13:14:10.006Z,4.30
2019-02-03T13:16:39.570Z,3.57
2019-02-03T13:19:09.278Z,3.67
2019-02-03T13:21:38.965Z,4.40
2019-02-03T13:24:08.505Z,3.83
2019-02-03T13:26:38.148Z,4.80
2019-02-03T13:29:07.701Z,4.03
2019-02-03T13:31:37.348Z,4.43
2019-02-03T13:34:07.058Z,4.60
2019-02-03T13:36:36.855Z,5.97
2019-02-03T13:39:09.793Z,8.00
2019-02-03T13:41:39.374Z,5.03
2019-02-03T13:44:09.058Z,7.27
2019-02-03T13:46:38.666Z,4.80
2019-02-03T13:49:08.370Z,3.67
2019-02-03T13:51:37.983Z,3.33
2019-02-03T13:54:07.538Z,3.30
2019-02-03T13:56:37.181Z,4.63
2019-02-03T13:59:06.740Z,4.87
2019-02-03T14:01:37.549Z,4.43
2019-02-03T14:04:08.929Z,5.20
2019-02-03T14:06:38.561Z,7.87
2019-02-03T14:09:09.680Z,6.50
2019-02-03T14:11:39.292Z,5.30
2019-02-03T14:14:09.281Z,5.10
2019-02-03T14:16:38.797Z,4.80
2019-02-03T14:19:11.098Z,5.33
2019-02-03T14:21:40.085Z,5.90
2019-02-03T14:24:09.769Z,4.67
2019-02-03T14:26:39.758Z,6.10
2019-02-03T14:29:09.403Z,5.73
2019-02-03T14:31:38.974Z,6.17
2019-02-03T14:34:08.956Z,6.70
2019-02-03T14:36:38.486Z,4.37
2019-02-03T14:39:09.953Z,5.90
2019-02-03T14:41:39.547Z,5.10
2019-02-03T14:44:09.063Z,5.53
2019-02-03T14:46:38.608Z,4.70
2019-02-03T14:49:08.273Z,5.17
2019-02-03T14:51:37.993Z,4.63
2019-02-03T14:54:07.534Z,5.70
2019-02-03T14:56:37.081Z,6.17
2019-02-03T14:59:06.621Z,5.67
2019-02-03T15:01:36.218Z,6.00
2019-02-03T15:04:07.051Z,6.90
2019-02-03T15:06:37.006Z,7.17
2019-02-03T15:09:09.591Z,8.40
2019-02-03T15:11:39.336Z,8.47
2019-02-03T15:14:08.964Z,8.37
2019-02-03T15:16:39.077Z,11.27
2019-02-03T15:19:09.010Z,5.10
2019-02-03T15:21:38.595Z,6.47
2019-02-03T15:24:15.927Z,7.40
2019-02-03T15:26:39.420Z,7.33
2019-02-03T15:29:09.101Z,7.83
2019-02-03T15:31:39.041Z,5.40
2019-02-03T15:34:11.600Z,7.50
2019-02-03T15:36:40.136Z,5.97
2019-02-03T15:39:10.970Z,6.27
2019-02-03T15:41:40.550Z,7.17
2019-02-03T15:44:12.244Z,7.20
2019-02-03T15:46:41.847Z,6.60
2019-02-03T15:49:11.482Z,5.70
2019-02-03T15:51:41.050Z,6.13
2019-02-03T15:54:10.603Z,5.90
2019-02-03T15:56:40.215Z,6.33
2019-02-03T15:59:09.770Z,5.53
2019-02-03T16:01:39.407Z,6.00
2019-02-03T16:04:11.080Z,6.67
2019-02-03T16:06:40.692Z,7.73
2019-02-03T16:09:10.389Z,7.10
2019-02-03T16:11:40.090Z,6.63
2019-02-03T16:14:09.646Z,6.80
2019-02-03T16:16:39.188Z,6.80
2019-02-03T16:19:08.833Z,6.30
2019-02-03T16:21:38.395Z,8.30
2019-02-03T16:24:08.411Z,5.90
2019-02-03T16:26:38.037Z,5.70
2019-02-03T16:29:08.060Z,4.57
2019-02-03T16:31:37.831Z,5.27
2019-02-03T16:34:07.666Z,4.60
2019-02-03T16:36:37.281Z,5.70
2019-02-03T16:39:08.601Z,5.80
2019-02-03T16:41:38.148Z,6.23
2019-02-03T16:44:07.777Z,51.30
2019-02-03T16:46:37.342Z,23.83
2019-02-03T16:49:07.073Z,8.23
2019-02-03T16:51:36.916Z,5.93
2019-02-03T16:54:06.682Z,6.40
2019-02-03T16:56:36.215Z,4.60
2019-02-03T16:59:06.027Z,4.57
2019-02-03T17:01:35.601Z,4.23
2019-02-03T17:04:05.553Z,5.83
2019-02-03T17:06:35.222Z,5.77
2019-02-03T17:09:07.252Z,5.27
2019-02-03T17:11:36.896Z,5.07
2019-02-03T17:14:06.535Z,3.30
2019-02-03T17:16:36.087Z,6.07
2019-02-03T17:19:06.048Z,6.50
2019-02-03T17:21:35.642Z,8.27
2019-02-03T17:24:05.307Z,7.27
2019-02-03T17:26:34.909Z,4.73
2019-02-03T17:29:04.638Z,6.60
2019-02-03T17:31:34.164Z,3.30
2019-02-03T17:34:03.884Z,5.73
2019-02-03T17:36:33.519Z,5.30
2019-02-03T17:39:04.476Z,4.93
2019-02-03T17:41:34.087Z,5.53
2019-02-03T17:44:12.512Z,5.60
2019-02-03T17:46:35.006Z,6.00
2019-02-03T17:49:04.740Z,7.47
2019-02-03T17:51:34.307Z,7.67
2019-02-03T17:54:03.914Z,10.50
2019-02-03T17:56:33.436Z,8.13
2019-02-03T17:59:02.999Z,8.90
2019-02-03T18:01:33.791Z,5.97
2019-02-03T18:04:03.481Z,7.10
2019-02-03T18:06:33.048Z,7.30
2019-02-03T18:09:02.789Z,7.40
2019-02-03T18:11:32.402Z,5.57
2019-02-03T18:14:02.358Z,7.03
2019-02-03T18:16:31.936Z,6.83
2019-02-03T18:19:03.483Z,5.93
2019-02-03T18:21:33.011Z,5.70
2019-02-03T18:24:02.595Z,4.47
2019-02-03T18:26:32.527Z,7.00
2019-02-03T18:29:02.275Z,5.53
2019-02-03T18:31:31.918Z,5.40
2019-02-03T18:34:01.438Z,6.60
2019-02-03T18:36:31.075Z,5.27
2019-02-03T18:39:00.629Z,5.00
2019-02-03T18:41:30.267Z,5.50
2019-02-03T18:43:59.857Z,5.83
2019-02-03T18:46:29.392Z,5.80
2019-02-03T18:48:58.951Z,5.60
2019-02-03T18:51:28.585Z,5.00
2019-02-03T18:53:58.492Z,6.33
2019-02-03T18:56:28.117Z,4.87
2019-02-03T18:58:57.640Z,5.40
2019-02-03T19:01:27.312Z,5.57
2019-02-03T19:03:57.016Z,5.03
2019-02-03T19:06:26.572Z,4.40
2019-02-03T19:08:56.162Z,4.57
2019-02-03T19:11:25.804Z,5.00
2019-02-03T19:13:55.322Z,6.27
2019-02-03T19:16:24.873Z,4.70
2019-02-03T19:18:54.422Z,5.47
2019-02-03T19:21:24.511Z,4.60
2019-02-03T19:23:54.100Z,5.63
2019-02-03T19:26:23.739Z,5.23
2019-02-03T19:28:53.273Z,4.93
2019-02-03T19:31:22.850Z,4.70
2019-02-03T19:33:52.526Z,3.90
2019-02-03T19:36:22.197Z,3.67
2019-02-03T19:38:51.795Z,5.83
2019-02-03T19:41:21.446Z,4.40
2019-02-03T19:43:51.088Z,5.30
2019-02-03T19:46:20.759Z,7.90
2019-02-03T19:48:50.692Z,6.50
2019-02-03T19:51:20.388Z,5.83
2019-02-03T19:53:49.969Z,4.20
2019-02-03T19:56:19.610Z,4.83
2019-02-03T19:58:49.157Z,5.10
2019-02-03T20:01:18.784Z,7.30
2019-02-03T20:03:48.426Z,11.23
2019-02-03T20:06:18.146Z,7.67
2019-02-03T20:08:47.793Z,14.13
2019-02-03T20:11:17.354Z,9.47
2019-02-03T20:13:46.992Z,5.23
2019-02-03T20:16:16.983Z,10.00
2019-02-03T20:18:46.505Z,9.30
2019-02-03T20:21:16.048Z,7.60
2019-02-03T20:23:45.593Z,10.17
2019-02-03T20:26:15.236Z,15.87
2019-02-03T20:28:44.766Z,5.67
2019-02-03T20:31:14.555Z,12.47
2019-02-03T20:33:44.186Z,13.40
2019-02-03T20:36:13.790Z,7.50
2019-02-03T20:38:43.376Z,6.47
2019-02-03T20:41:13.049Z,8.50
2019-02-03T20:43:42.625Z,8.63
2019-02-03T20:46:12.275Z,20.50
2019-02-03T20:48:41.928Z,11.90
2019-02-03T20:51:11.540Z,12.90
2019-02-03T20:53:43.998Z,7.87
2019-02-03T20:56:13.541Z,4.37
2019-02-03T20:58:43.387Z,4.80
2019-02-03T21:01:13.024Z,5.57
2019-02-03T21:03:42.552Z,5.17
2019-02-03T21:06:12.069Z,4.40
2019-02-03T21:08:41.750Z,4.50
2019-02-03T21:11:11.311Z,4.87
2019-02-03T21:13:40.856Z,6.67
2019-02-03T21:16:10.444Z,8.43
2019-02-03T21:18:40.059Z,6.13
2019-02-03T21:21:09.744Z,5.07
2019-02-03T21:23:39.310Z,5.10
2019-02-03T21:26:15.838Z,4.50
2019-02-03T21:28:42.597Z,4.83
2019-02-03T21:31:12.096Z,4.90
2019-02-03T21:33:41.727Z,3.97
2019-02-03T21:36:11.396Z,4.23
2019-02-03T21:38:41.105Z,5.00
2019-02-03T21:41:10.810Z,3.53
2019-02-03T21:43:40.467Z,6.37
2019-02-03T21:46:10.019Z,4.90
2019-02-03T21:48:39.670Z,5.10
2019-02-03T21:51:09.208Z,4.23
2019-02-03T21:53:39.007Z,4.83
2019-02-03T21:56:08.529Z,5.07
2019-02-03T21:58:38.102Z,4.40
2019-02-03T22:01:07.766Z,4.10
2019-02-03T22:03:37.320Z,5.50
2019-02-03T22:06:06.982Z,4.77
2019-02-03T22:08:36.627Z,3.83
2019-02-03T22:11:06.195Z,4.43
2019-02-03T22:13:35.815Z,4.27
2019-02-03T22:16:05.408Z,4.17
2019-02-03T22:18:34.938Z,4.80
2019-02-03T22:21:04.635Z,4.37
2019-02-03T22:23:34.374Z,4.13
2019-02-03T22:26:03.906Z,3.90
2019-02-03T22:28:33.448Z,3.70
2019-02-03T22:31:03.006Z,4.90
2019-02-03T22:33:32.938Z,4.37
2019-02-03T22:36:02.597Z,4.60
2019-02-03T22:38:32.188Z,3.53
2019-02-03T22:41:01.829Z,4.70
2019-02-03T22:43:31.486Z,5.33
2019-02-03T22:46:07.238Z,5.93
2019-02-03T22:48:32.420Z,5.00
2019-02-03T22:51:01.940Z,4.70
2019-02-03T22:53:31.586Z,4.40
2019-02-03T22:56:01.198Z,4.20
2019-02-03T22:58:30.930Z,5.17
2019-02-03T23:01:11.545Z,3.67
2019-02-03T23:04:03.520Z,3.50
2019-02-03T23:06:33.192Z,4.07
2019-02-03T23:09:06.516Z,3.33
2019-02-03T23:11:36.144Z,4.40
2019-02-03T23:14:05.844Z,4.20
2019-02-03T23:16:35.626Z,4.33
2019-02-03T23:19:05.363Z,4.70
2019-02-03T23:21:35.258Z,5.60
2019-02-03T23:24:04.852Z,5.10
2019-02-03T23:26:34.476Z,6.33
2019-02-03T23:29:04.173Z,5.70
2019-02-03T23:31:33.820Z,5.50
2019-02-03T23:34:03.494Z,4.90
2019-02-03T23:36:33.132Z,6.00
2019-02-03T23:39:03.293Z,4.70
2019-02-03T23:41:33.073Z,5.80
2019-02-03T23:44:02.790Z,5.20
2019-02-03T23:46:32.630Z,4.57
2019-02-03T23:49:03.594Z,4.90
2019-02-03T23:51:33.203Z,3.70
2019-02-03T23:54:02.817Z,3.77
2019-02-03T23:56:32.353Z,3.27
2019-02-03T23:59:01.932Z,4.20
